Time;durP1;ratioP1;P1;durP2;ratioP2;P2;SDS_P1;SDS_P2;PMS_P1;PMS_P2;Temp;Humidity;BMP_temperature;BMP_pressure;BME280_temperature;BME280_humidity;BME280_pressure;Samples;Min_cycle;Max_cycle;Signal;HPM_P1;HPM_P2
2022/06/16 00:00:11;;;;;;;0.03;0.03;;;16.80;99.90;;;;;;4916249;29;20139;-68
2022/06/16 00:02:48;;;;;;;0.10;0.10;;;16.70;99.90;;;;;;4915628;29;20773;-68
2022/06/16 00:05:19;;;;;;;0.20;0.20;;;16.70;99.90;;;;;;4916008;29;20483;-67
2022/06/16 00:07:45;;;;;;;0.00;0.00;;;16.70;99.90;;;;;;4917325;29;20048;-68
2022/06/16 00:10:11;;;;;;;0.00;0.00;;;16.60;99.90;;;;;;4916654;29;20427;-68
2022/06/16 00:12:37;;;;;;;0.10;0.10;;;16.70;99.90;;;;;;4915696;29;20044;-68
2022/06/16 00:15:04;;;;;;;0.10;0.10;;;16.60;99.90;;;;;;4902859;29;20052;-68
2022/06/16 00:17:29;;;;;;;0.00;0.00;;;16.70;99.90;;;;;;4896308;29;20093;-67
2022/06/16 00:19:55;;;;;;;1.65;0.98;;;16.60;99.90;;;;;;4898481;29;20131;-68
2022/06/16 00:22:20;;;;;;;0.10;0.10;;;16.60;99.90;;;;;;4898693;29;20712;-68
2022/06/16 00:24:46;;;;;;;0.00;0.00;;;16.60;99.90;;;;;;4898182;29;20040;-68
2022/06/16 00:27:11;;;;;;;0.00;0.00;;;16.60;99.90;;;;;;4900296;29;20048;-67
2022/06/16 00:29:37;;;;;;;2.08;1.48;;;16.50;99.90;;;;;;4897578;29;20092;-68
2022/06/16 00:32:03;;;;;;;0.00;0.00;;;16.50;99.90;;;;;;4897898;29;20496;-68
2022/06/16 00:34:29;;;;;;;0.00;0.00;;;16.60;99.90;;;;;;4897882;29;20097;-68
2022/06/16 00:36:55;;;;;;;0.00;0.00;;;16.50;99.90;;;;;;4898817;29;20072;-68
2022/06/16 00:39:20;;;;;;;0.28;0.28;;;16.50;99.90;;;;;;4902146;29;20051;-68
2022/06/16 00:41:47;;;;;;;0.10;0.10;;;16.50;99.90;;;;;;4911793;29;20048;-68
2022/06/16 00:44:40;;;;;;;0.30;0.30;;;16.60;99.90;;;;;;4915818;29;20076;-68
2022/06/16 00:47:06;;;;;;;;;;;16.50;99.90;;;;;;4909861;29;20091;-68
2022/06/16 00:49:35;;;;;;;0.28;0.28;;;16.50;99.90;;;;;;4916584;29;20383;-68
2022/06/16 00:52:06;;;;;;;0.28;0.28;;;16.50;99.90;;;;;;4915969;29;20058;-68
2022/06/16 00:54:40;;;;;;;0.10;0.10;;;16.50;99.90;;;;;;4916401;29;20531;-68
2022/06/16 00:57:10;;;;;;;1.10;0.32;;;16.50;99.90;;;;;;4910907;29;20049;-67
2022/06/16 00:59:36;;;;;;;0.30;0.30;;;16.50;99.90;;;;;;4897240;29;20040;-68
2022/06/16 01:02:05;;;;;;;0.10;0.10;;;16.50;99.90;;;;;;4905386;29;20044;-68
2022/06/16 01:07:17;;;;;;;7.10;0.40;;;16.30;99.90;;;;;;4914845;29;20055;-67
2022/06/16 01:09:43;;;;;;;0.03;0.03;;;16.40;99.90;;;;;;4916218;29;20040;-68
2022/06/16 01:15:27;;;;;;;0.35;0.35;;;16.40;99.90;;;;;;4904825;29;20080;-68
2022/06/16 01:18:05;;;;;;;17.42;2.83;;;16.40;99.90;;;;;;4898480;29;20437;-68
2022/06/16 01:20:38;;;;;;;0.00;0.00;;;16.50;99.90;;;;;;4908031;29;20048;-68
2022/06/16 01:23:34;;;;;;;0.03;0.03;;;16.40;99.90;;;;;;4896890;29;20509;-68
2022/06/16 01:26:18;;;;;;;0.52;0.52;;;16.40;99.90;;;;;;4896669;29;20087;-68
2022/06/16 01:29:05;;;;;;;0.10;0.10;;;16.40;99.90;;;;;;4915162;29;20063;-67
2022/06/16 01:31:56;;;;;;;1.52;1.42;;;16.40;99.90;;;;;;4912852;29;20067;-68
2022/06/16 01:34:35;;;;;;;0.08;0.08;;;16.40;99.90;;;;;;4912064;29;20064;-68
2022/06/16 01:37:24;;;;;;;0.10;0.10;;;16.40;99.90;;;;;;4914051;29;20559;-68
2022/06/16 01:40:04;;;;;;;0.00;0.00;;;16.40;99.90;;;;;;4914319;29;20389;-68
2022/06/16 01:42:37;;;;;;;0.00;0.00;;;16.30;99.90;;;;;;4914691;29;20491;-68
2022/06/16 01:45:23;;;;;;;0.20;0.20;;;16.40;99.90;;;;;;4912883;29;20059;-68
2022/06/16 01:47:51;;;;;;;0.00;0.00;;;16.30;99.90;;;;;;4910782;29;20048;-68
2022/06/16 01:50:31;;;;;;;0.57;0.57;;;16.30;99.90;;;;;;4914399;29;20036;-67
2022/06/16 01:53:11;;;;;;;0.10;0.10;;;16.30;99.90;;;;;;4915960;29;20083;-68
2022/06/16 01:55:43;;;;;;;0.00;0.00;;;16.20;99.90;;;;;;4911166;29;20460;-68
2022/06/16 01:58:14;;;;;;;0.10;0.10;;;16.20;99.90;;;;;;4915694;29;20399;-68
2022/06/16 02:00:43;;;;;;;0.00;0.00;;;16.20;99.90;;;;;;4908303;29;20052;-68
2022/06/16 02:03:19;;;;;;;0.10;0.10;;;16.10;99.90;;;;;;4894835;29;20409;-68
2022/06/16 02:05:52;;;;;;;0.05;0.05;;;16.10;99.90;;;;;;4896027;29;20053;-68
2022/06/16 02:08:42;;;;;;;0.10;0.10;;;16.00;99.90;;;;;;4896136;29;20052;-68
2022/06/16 02:11:32;;;;;;;0.32;0.30;;;16.00;99.90;;;;;;4895780;29;20095;-68
2022/06/16 02:14:08;;;;;;;0.08;0.08;;;16.10;99.90;;;;;;4899472;29;20135;-68
2022/06/16 02:16:36;;;;;;;0.13;0.13;;;16.10;99.90;;;;;;4902038;29;20051;-68
2022/06/16 02:19:08;;;;;;;0.00;0.00;;;16.10;99.90;;;;;;4895090;29;20064;-68
2022/06/16 02:21:35;;;;;;;0.25;0.20;;;16.00;99.90;;;;;;4895278;29;20056;-68
2022/06/16 02:24:03;;;;;;;0.00;0.00;;;16.00;99.90;;;;;;4903243;29;20044;-68
2022/06/16 02:26:29;;;;;;;0.00;0.00;;;15.90;99.90;;;;;;4915029;29;20080;-68
2022/06/16 02:28:58;;;;;;;0.57;0.57;;;15.90;99.90;;;;;;4914946;29;20080;-67
2022/06/16 02:31:40;;;;;;;0.00;0.00;;;15.90;99.90;;;;;;4904189;29;20037;-68
2022/06/16 02:34:28;;;;;;;0.00;0.00;;;15.90;99.90;;;;;;4895382;29;20066;-68
2022/06/16 02:37:18;;;;;;;0.00;0.00;;;15.80;99.90;;;;;;4894860;29;20095;-68
2022/06/16 02:40:12;;;;;;;0.45;0.32;;;15.80;99.90;;;;;;4902709;29;20068;-68
2022/06/16 02:43:01;;;;;;;0.00;0.00;;;15.70;99.90;;;;;;4895839;29;20457;-68
2022/06/16 02:45:30;;;;;;;0.03;0.03;;;15.60;99.90;;;;;;4895485;29;20040;-68
2022/06/16 02:48:07;;;;;;;0.82;0.68;;;15.50;99.90;;;;;;4895414;29;20516;-67
2022/06/16 02:50:36;;;;;;;0.03;0.03;;;15.40;99.90;;;;;;4893674;29;20401;-68
2022/06/16 02:56:29;;;;;;;0.00;0.00;;;15.20;99.90;;;;;;4898006;29;20085;-68
2022/06/16 02:59:01;;;;;;;0.10;0.10;;;15.20;99.90;;;;;;4893597;29;20056;-68
2022/06/16 03:01:27;;;;;;;0.00;0.00;;;15.10;99.90;;;;;;4895429;29;20466;-68
2022/06/16 03:04:05;;;;;;;0.10;0.10;;;15.10;99.90;;;;;;4900686;29;20043;-68
2022/06/16 03:06:31;;;;;;;0.20;0.20;;;15.00;99.90;;;;;;4913584;29;20048;-67
2022/06/16 03:08:58;;;;;;;0.10;0.10;;;15.00;99.90;;;;;;4914404;29;20052;-68
2022/06/16 03:11:24;;;;;;;0.00;0.00;;;15.00;99.90;;;;;;4905720;29;20048;-68
2022/06/16 03:13:49;;;;;;;0.10;0.10;;;15.10;99.90;;;;;;4896403;29;20062;-68
2022/06/16 03:16:15;;;;;;;0.35;0.35;;;15.10;99.90;;;;;;4911944;29;20048;-68
2022/06/16 03:18:41;;;;;;;0.20;0.20;;;15.10;99.90;;;;;;4913186;29;20146;-68
2022/06/16 03:21:07;;;;;;;0.75;0.75;;;15.10;99.90;;;;;;4913930;29;20054;-68
2022/06/16 03:23:33;;;;;;;0.00;0.00;;;15.00;99.90;;;;;;4909857;29;20104;-68
2022/06/16 03:25:59;;;;;;;0.05;0.05;;;15.00;99.90;;;;;;4912136;29;20043;-68
2022/06/16 03:28:25;;;;;;;0.68;0.63;;;15.10;99.90;;;;;;4914085;29;20047;-68
2022/06/16 03:30:51;;;;;;;0.10;0.10;;;15.10;99.90;;;;;;4907942;29;20044;-68
2022/06/16 03:33:18;;;;;;;0.20;0.20;;;15.10;99.90;;;;;;4893920;29;20141;-68
2022/06/16 03:35:44;;;;;;;0.00;0.00;;;15.10;99.90;;;;;;4896733;29;20080;-68
2022/06/16 03:38:19;;;;;;;0.00;0.00;;;15.10;99.90;;;;;;4913749;29;20067;-68
2022/06/16 03:40:45;;;;;;;0.00;0.00;;;15.10;99.90;;;;;;4913566;29;20051;-68
2022/06/16 03:43:11;;;;;;;0.20;0.20;;;15.10;99.90;;;;;;4913801;29;20066;-67
2022/06/16 03:45:37;;;;;;;0.20;0.20;;;15.10;99.90;;;;;;4910558;29;20083;-68
2022/06/16 03:48:03;;;;;;;1.00;0.70;;;15.10;99.90;;;;;;4912985;29;20090;-68
2022/06/16 03:50:29;;;;;;;1.40;0.85;;;15.10;99.90;;;;;;4913814;29;20040;-68
2022/06/16 03:52:55;;;;;;;0.00;0.00;;;15.20;99.90;;;;;;4909554;29;20048;-68
2022/06/16 03:55:21;;;;;;;0.10;0.10;;;15.20;99.90;;;;;;4912943;29;20058;-67
2022/06/16 03:57:47;;;;;;;0.70;0.70;;;15.20;99.90;;;;;;4896862;29;20049;-68
2022/06/16 04:00:14;;;;;;;0.22;0.22;;;15.20;99.90;;;;;;4894762;29;20100;-67
2022/06/16 04:02:39;;;;;;;0.20;0.13;;;15.20;99.90;;;;;;4893349;29;20139;-68
2022/06/16 04:05:07;;;;;;;0.10;0.10;;;15.30;99.90;;;;;;4893135;29;20139;-68
2022/06/16 04:07:36;;;;;;;0.10;0.10;;;15.30;99.90;;;;;;4894091;29;20083;-68
2022/06/16 04:10:07;;;;;;;0.00;0.00;;;15.30;99.90;;;;;;4894773;29;20048;-68
2022/06/16 04:12:32;;;;;;;0.00;0.00;;;15.30;99.90;;;;;;4892406;29;20112;-68
2022/06/16 04:14:58;;;;;;;6.50;0.47;;;15.40;99.90;;;;;;4905546;29;20933;-68
2022/06/16 04:17:24;;;;;;;0.10;0.10;;;15.40;99.90;;;;;;4909684;29;20047;-68
2022/06/16 04:22:33;;;;;;;0.00;0.00;;;15.50;99.90;;;;;;4911661;29;20075;-68
2022/06/16 04:24:59;;;;;;;0.28;0.28;;;15.40;99.90;;;;;;4913630;29;20080;-68
2022/06/16 04:27:25;;;;;;;0.00;0.00;;;15.40;99.90;;;;;;4910205;29;20131;-68
2022/06/16 04:29:52;;;;;;;0.10;0.10;;;15.40;99.90;;;;;;4911507;29;20130;-68
2022/06/16 04:32:18;;;;;;;0.57;0.57;;;15.40;99.90;;;;;;4913082;29;20792;-68
2022/06/16 04:34:44;;;;;;;0.25;0.25;;;15.40;99.90;;;;;;4907769;29;20052;-68
2022/06/16 04:37:10;;;;;;;0.20;0.20;;;15.40;99.90;;;;;;4913319;29;20817;-68
2022/06/16 04:39:36;;;;;;;0.00;0.00;;;15.40;99.90;;;;;;4914413;29;20535;-68
2022/06/16 04:42:02;;;;;;;0.10;0.10;;;15.30;99.90;;;;;;4916640;29;20115;-68
2022/06/16 04:44:27;;;;;;;1.98;1.20;;;15.30;99.90;;;;;;4915988;29;20051;-68
2022/06/16 04:46:53;;;;;;;1.02;0.38;;;15.30;99.90;;;;;;4900323;29;20139;-68
2022/06/16 04:49:19;;;;;;;0.38;0.38;;;15.30;99.90;;;;;;4897553;29;20044;-68
2022/06/16 04:51:44;;;;;;;0.13;0.13;;;15.30;99.90;;;;;;4896326;29;20100;-68
2022/06/16 04:54:10;;;;;;;0.43;0.43;;;15.30;99.90;;;;;;4896818;29;20494;-68
2022/06/16 04:56:35;;;;;;;0.45;0.45;;;15.20;99.90;;;;;;4911717;29;20057;-68
2022/06/16 04:59:01;;;;;;;0.82;0.80;;;15.20;99.90;;;;;;4896965;29;20049;-68
2022/06/16 05:01:26;;;;;;;0.00;0.00;;;15.30;99.90;;;;;;4897707;29;20186;-67
2022/06/16 05:03:52;;;;;;;0.00;0.00;;;15.30;99.90;;;;;;4896830;29;20048;-68
2022/06/16 05:06:18;;;;;;;0.10;0.10;;;15.40;99.90;;;;;;4896313;29;20044;-68
2022/06/16 05:08:44;;;;;;;0.10;0.10;;;15.50;99.90;;;;;;4897646;29;20485;-68
2022/06/16 05:11:09;;;;;;;0.10;0.10;;;15.50;99.90;;;;;;4895389;29;20283;-67
2022/06/16 05:13:35;;;;;;;1.10;1.00;;;15.50;99.90;;;;;;4898186;29;20052;-68
2022/06/16 05:16:01;;;;;;;0.20;0.20;;;15.60;99.90;;;;;;4914328;29;20131;-68
2022/06/16 05:18:27;;;;;;;0.20;0.20;;;15.70;99.90;;;;;;4898984;29;20048;-68
2022/06/16 05:21:01;;;;;;;0.10;0.10;;;15.70;99.90;;;;;;4897671;29;20041;-68
2022/06/16 05:23:27;;;;;;;0.10;0.10;;;15.80;99.90;;;;;;4907630;29;20079;-68
2022/06/16 05:25:52;;;;;;;0.00;0.00;;;15.80;99.90;;;;;;4915728;29;20414;-68
2022/06/16 05:28:18;;;;;;;0.77;0.57;;;15.90;99.90;;;;;;4914513;29;20385;-68
2022/06/16 05:30:44;;;;;;;0.10;0.10;;;15.90;99.90;;;;;;4914736;29;20130;-68
2022/06/16 05:33:10;;;;;;;0.03;0.03;;;15.90;99.90;;;;;;4899902;29;20072;-68
2022/06/16 05:35:35;;;;;;;0.10;0.10;;;15.80;99.90;;;;;;4897037;29;20048;-68
2022/06/16 05:38:01;;;;;;;0.10;0.10;;;15.90;99.90;;;;;;4908533;29;20040;-68
2022/06/16 05:40:27;;;;;;;0.35;0.35;;;16.00;99.90;;;;;;4915137;29;20044;-68
2022/06/16 05:42:52;;;;;;;0.10;0.10;;;16.10;99.90;;;;;;4914884;29;20407;-68
2022/06/16 05:45:18;;;;;;;0.20;0.20;;;16.10;99.90;;;;;;4915751;29;20498;-68
2022/06/16 05:47:44;;;;;;;0.75;0.68;;;16.10;99.90;;;;;;4909119;29;20059;-68
2022/06/16 05:50:13;;;;;;;0.10;0.10;;;16.10;99.90;;;;;;4908772;29;20044;-68
2022/06/16 05:52:38;;;;;;;0.10;0.10;;;16.10;99.90;;;;;;4896572;29;20155;-68
2022/06/16 05:55:04;;;;;;;0.00;0.00;;;16.20;99.90;;;;;;4894317;29;20152;-67
2022/06/16 05:57:30;;;;;;;0.00;0.00;;;16.10;99.90;;;;;;4912579;29;20068;-68
2022/06/16 05:59:55;;;;;;;0.10;0.10;;;16.20;99.90;;;;;;4915320;29;20048;-68
2022/06/16 06:02:21;;;;;;;0.00;0.00;;;16.20;99.90;;;;;;4914139;29;20048;-68
2022/06/16 06:04:48;;;;;;;0.20;0.20;;;16.30;99.90;;;;;;4900700;29;20139;-68
2022/06/16 06:07:14;;;;;;;0.13;0.13;;;16.20;99.90;;;;;;4895504;29;20485;-68
2022/06/16 06:18:15;;;;;;;0.00;0.00;;;16.40;99.90;;;;;;4896180;29;20404;-68
2022/06/16 06:20:41;;;;;;;0.08;0.08;;;16.40;99.90;;;;;;4895903;29;20053;-68
2022/06/16 06:23:07;;;;;;;0.10;0.10;;;16.50;99.90;;;;;;4895335;29;20071;-68
2022/06/16 06:25:33;;;;;;;0.15;0.15;;;16.50;99.90;;;;;;4896258;29;20489;-68
2022/06/16 06:27:58;;;;;;;0.00;0.00;;;16.50;99.90;;;;;;4893370;29;20493;-67
2022/06/16 06:30:28;;;;;;;0.00;0.00;;;16.60;99.90;;;;;;4895162;29;20056;-68
2022/06/16 06:32:55;;;;;;;0.00;0.00;;;16.60;99.90;;;;;;4896215;29;20417;-68
2022/06/16 06:35:21;;;;;;;0.10;0.10;;;16.70;99.90;;;;;;4893382;29;20196;-68
2022/06/16 06:37:46;;;;;;;0.35;0.35;;;16.70;99.90;;;;;;4905076;29;20123;-68
2022/06/16 06:40:22;;;;;;;0.25;0.25;;;16.70;99.90;;;;;;4912897;29;20063;-68
2022/06/16 06:42:48;;;;;;;0.00;0.00;;;16.80;99.90;;;;;;4914527;29;20040;-68
2022/06/16 06:45:14;;;;;;;0.00;0.00;;;16.90;99.90;;;;;;4896645;29;20048;-68
2022/06/16 06:47:39;;;;;;;0.00;0.00;;;16.90;99.90;;;;;;4895451;29;20049;-68
2022/06/16 06:50:06;;;;;;;0.00;0.00;;;17.00;99.90;;;;;;4894857;29;20063;-67
2022/06/16 06:52:31;;;;;;;0.00;0.00;;;17.00;99.90;;;;;;4896713;29;20060;-68
2022/06/16 06:54:57;;;;;;;0.10;0.10;;;17.00;99.90;;;;;;4894163;29;20049;-68
2022/06/16 06:57:26;;;;;;;0.70;0.15;;;17.00;99.90;;;;;;4901749;29;20092;-68
2022/06/16 06:59:52;;;;;;;0.10;0.10;;;17.00;99.90;;;;;;4911949;29;20091;-67
2022/06/16 07:02:19;;;;;;;0.00;0.00;;;17.10;99.90;;;;;;4911109;29;20052;-68
2022/06/16 07:04:45;;;;;;;0.20;0.20;;;17.10;99.90;;;;;;4910654;29;20531;-68
2022/06/16 07:07:14;;;;;;;0.00;0.00;;;17.20;99.90;;;;;;4913807;29;20052;-68
2022/06/16 07:09:40;;;;;;;0.10;0.10;;;17.20;99.90;;;;;;4912943;29;20060;-68
2022/06/16 07:12:13;;;;;;;0.00;0.00;;;17.30;99.90;;;;;;4913558;29;20119;-68
2022/06/16 07:14:43;;;;;;;0.20;0.20;;;17.30;99.90;;;;;;4900456;29;20377;-68
2022/06/16 07:17:09;;;;;;;0.00;0.00;;;17.30;99.90;;;;;;4894402;29;20051;-68
2022/06/16 07:19:35;;;;;;;0.10;0.10;;;17.30;99.90;;;;;;4894416;29;20048;-68
2022/06/16 07:22:02;;;;;;;0.00;0.00;;;17.50;99.90;;;;;;4905222;29;20084;-68
2022/06/16 07:24:27;;;;;;;0.05;0.05;;;17.50;99.90;;;;;;4912000;29;20048;-68
2022/06/16 07:26:53;;;;;;;0.10;0.10;;;17.50;99.90;;;;;;4901045;29;20112;-67
2022/06/16 07:29:18;;;;;;;0.10;0.10;;;17.60;99.90;;;;;;4894696;29;20056;-68
2022/06/16 07:31:44;;;;;;;0.05;0.05;;;17.70;99.90;;;;;;4893702;29;20610;-68
2022/06/16 07:34:10;;;;;;;0.00;0.00;;;17.70;99.90;;;;;;4895949;29;20056;-68
2022/06/16 07:36:35;;;;;;;0.00;0.00;;;17.70;99.90;;;;;;4893780;29;20442;-68
2022/06/16 07:39:01;;;;;;;0.00;0.00;;;17.80;99.90;;;;;;4894580;29;20048;-68
2022/06/16 07:41:36;;;;;;;0.52;0.52;;;17.80;99.90;;;;;;4913346;29;20080;-67
2022/06/16 07:44:05;;;;;;;0.00;0.00;;;17.90;99.90;;;;;;4913832;29;20048;-68
2022/06/16 07:46:31;;;;;;;0.10;0.10;;;17.90;99.90;;;;;;4912147;29;20247;-68
2022/06/16 07:48:57;;;;;;;0.00;0.00;;;17.90;99.90;;;;;;4909676;29;20048;-68
2022/06/16 07:51:22;;;;;;;0.00;0.00;;;18.00;99.90;;;;;;4913531;29;20063;-68
2022/06/16 07:53:48;;;;;;;0.00;0.00;;;18.10;99.90;;;;;;4903354;29;20045;-68
2022/06/16 07:56:14;;;;;;;0.10;0.10;;;18.10;99.90;;;;;;4893174;29;20860;-68
2022/06/16 07:58:41;;;;;;;0.00;0.00;;;18.30;99.90;;;;;;4893412;29;20048;-68
2022/06/16 08:01:07;;;;;;;0.03;0.03;;;18.40;99.90;;;;;;4905583;29;20044;-68
2022/06/16 08:03:33;;;;;;;0.03;0.03;;;18.40;99.90;;;;;;4913533;29;20481;-68
2022/06/16 08:06:04;;;;;;;0.55;0.45;;;18.50;99.90;;;;;;4912340;29;20083;-68
2022/06/16 08:08:29;;;;;;;0.00;0.00;;;18.50;99.90;;;;;;4897904;29;20048;-68
2022/06/16 08:10:55;;;;;;;0.55;0.43;;;18.50;99.90;;;;;;4893395;29;20055;-68
2022/06/16 08:13:23;;;;;;;0.10;0.10;;;18.60;99.90;;;;;;4908380;29;20055;-68
2022/06/16 08:15:50;;;;;;;0.00;0.00;;;18.70;99.90;;;;;;4915643;29;20044;-68
2022/06/16 08:18:19;;;;;;;5.38;0.38;;;18.70;99.90;;;;;;4915770;29;20484;-68
2022/06/16 08:20:45;;;;;;;0.00;0.00;;;18.80;99.90;;;;;;4897712;29;20048;-68
2022/06/16 08:23:11;;;;;;;0.08;0.08;;;18.70;99.90;;;;;;4897067;29;20143;-67
2022/06/16 08:25:38;;;;;;;0.00;0.00;;;18.70;99.90;;;;;;4901564;29;20047;-68
2022/06/16 08:28:06;;;;;;;0.00;0.00;;;18.80;99.90;;;;;;4914692;29;20052;-68
2022/06/16 08:30:33;;;;;;;0.22;0.22;;;18.80;99.90;;;;;;4903820;29;20045;-68
2022/06/16 08:32:59;;;;;;;0.05;0.05;;;18.90;99.90;;;;;;4897463;29;20124;-68
2022/06/16 08:35:25;;;;;;;0.03;0.03;;;19.10;99.90;;;;;;4898682;29;20081;-67
2022/06/16 08:37:51;;;;;;;0.00;0.00;;;19.10;99.90;;;;;;4896791;29;20096;-68
2022/06/16 08:40:18;;;;;;;0.08;0.08;;;19.20;99.90;;;;;;4911298;29;20389;-68
2022/06/16 08:42:50;;;;;;;0.10;0.10;;;19.30;99.90;;;;;;4915120;29;20184;-68
2022/06/16 08:45:40;;;;;;;0.25;0.25;;;19.30;99.90;;;;;;4904334;29;20088;-68
2022/06/16 08:48:24;;;;;;;0.00;0.00;;;19.30;99.90;;;;;;4897878;29;20049;-68
2022/06/16 08:51:03;;;;;;;0.70;0.70;;;19.40;99.90;;;;;;4897693;29;20117;-67
2022/06/16 08:53:48;;;;;;;0.10;0.10;;;19.50;99.90;;;;;;4897483;29;20105;-68
2022/06/16 08:56:34;;;;;;;0.00;0.00;;;19.50;99.90;;;;;;4895659;29;20083;-68
2022/06/16 08:59:17;;;;;;;0.00;0.00;;;19.60;99.90;;;;;;4895342;29;20557;-68
2022/06/16 09:01:54;;;;;;;0.00;0.00;;;19.60;99.90;;;;;;4897638;29;20059;-68
2022/06/16 09:04:46;;;;;;;0.10;0.10;;;19.70;99.90;;;;;;4896961;29;20364;-68
2022/06/16 09:07:12;;;;;;;0.10;0.10;;;19.80;99.90;;;;;;4900094;29;20052;-68
2022/06/16 09:12:49;;;;;;;0.00;0.00;;;19.80;99.90;;;;;;4914940;29;20048;-68
2022/06/16 09:15:22;;;;;;;0.10;0.10;;;19.80;99.90;;;;;;4906126;29;20520;-68
2022/06/16 09:17:59;;;;;;;0.00;0.00;;;19.90;99.90;;;;;;4907934;29;20048;-68
2022/06/16 09:20:42;;;;;;;0.40;0.40;;;19.90;99.90;;;;;;4916373;29;20043;-68
2022/06/16 09:23:28;;;;;;;0.22;0.22;;;19.90;99.90;;;;;;4896582;29;20528;-68
2022/06/16 09:26:50;;;;;;;0.00;0.00;;;20.00;99.90;;;;;;4892749;29;20084;-67
2022/06/16 09:29:23;;;;;;;0.00;0.00;;;20.10;99.90;;;;;;4865943;29;20566;-68
2022/06/16 09:32:07;;;;;;;0.30;0.30;;;20.10;99.90;;;;;;4878629;29;20224;-68
2022/06/16 09:34:43;;;;;;;1.05;1.02;;;20.20;99.90;;;;;;4907754;29;20099;-68
2022/06/16 09:37:15;;;;;;;0.05;0.05;;;20.30;99.90;;;;;;4915902;29;20469;-67
2022/06/16 09:39:48;;;;;;;0.17;0.17;;;20.40;99.90;;;;;;4902119;29;20053;-68
2022/06/16 09:42:33;;;;;;;0.10;0.10;;;20.60;99.90;;;;;;4896560;29;20563;-68
2022/06/16 09:45:20;;;;;;;0.00;0.00;;;20.80;99.90;;;;;;4896941;29;20100;-68
2022/06/16 09:48:04;;;;;;;0.00;0.00;;;21.20;99.90;;;;;;4895963;29;20079;-67
2022/06/16 09:50:55;;;;;;;0.17;0.17;;;21.50;99.90;;;;;;4896802;29;20524;-68
2022/06/16 09:53:39;;;;;;;0.00;0.00;;;21.90;99.90;;;;;;4894489;29;20076;-68
2022/06/16 09:56:17;;;;;;;0.00;0.00;;;22.30;99.90;;;;;;4897644;29;20116;-68
2022/06/16 09:58:49;;;;;;;0.00;0.00;;;22.50;99.90;;;;;;4906351;29;20044;-68
2022/06/16 10:01:19;;;;;;;0.60;0.57;;;22.60;99.90;;;;;;4914783;29;20079;-68
2022/06/16 10:04:00;;;;;;;0.00;0.00;;;22.70;99.90;;;;;;4902973;29;20063;-68
2022/06/16 10:06:48;;;;;;;0.30;0.30;;;22.80;99.90;;;;;;4895634;29;20044;-67
2022/06/16 10:09:37;;;;;;;0.43;0.43;;;22.90;99.90;;;;;;4895047;29;20143;-68
2022/06/16 10:12:02;;;;;;;0.08;0.05;;;22.80;99.90;;;;;;4893270;29;20116;-68
2022/06/16 10:14:41;;;;;;;1.10;0.90;;;22.90;99.90;;;;;;4904097;29;20127;-68
2022/06/16 10:17:14;;;;;;;0.00;0.00;;;22.90;99.90;;;;;;4915117;29;20091;-68
2022/06/16 10:19:44;;;;;;;0.00;0.00;;;22.80;99.90;;;;;;4912386;29;20056;-67
2022/06/16 10:22:13;;;;;;;0.03;0.03;;;22.80;99.90;;;;;;4906574;29;20057;-68
2022/06/16 10:24:45;;;;;;;0.20;0.20;;;22.70;99.90;;;;;;4894674;29;20520;-68
2022/06/16 10:27:14;;;;;;;0.03;0.03;;;22.90;99.90;;;;;;4904177;29;20046;-67
2022/06/16 10:29:54;;;;;;;0.00;0.00;;;23.10;99.90;;;;;;4901722;29;20052;-68
2022/06/16 10:32:35;;;;;;;0.08;0.08;;;23.30;99.90;;;;;;4895478;29;20053;-68
2022/06/16 10:35:01;;;;;;;0.00;0.00;;;23.50;99.90;;;;;;4902836;29;20052;-68
2022/06/16 10:37:30;;;;;;;0.00;0.00;;;23.70;99.90;;;;;;4914474;29;20051;-68
2022/06/16 10:40:03;;;;;;;0.00;0.00;;;23.60;99.90;;;;;;4903724;29;20493;-68
2022/06/16 10:42:42;;;;;;;0.00;0.00;;;23.60;99.90;;;;;;4894230;29;20052;-67
2022/06/16 10:45:10;;;;;;;0.00;0.00;;;23.70;99.90;;;;;;4895084;29;20048;-67
2022/06/16 10:47:41;;;;;;;0.00;0.00;;;23.60;99.90;;;;;;4894577;29;20048;-68
2022/06/16 10:50:18;;;;;;;0.10;0.10;;;23.80;99.90;;;;;;4892806;29;20063;-68
2022/06/16 10:52:50;;;;;;;0.10;0.10;;;23.80;99.90;;;;;;4912445;29;20044;-68
2022/06/16 10:55:23;;;;;;;0.88;0.52;;;23.70;99.90;;;;;;4913150;29;20060;-67
2022/06/16 10:58:00;;;;;;;0.00;0.00;;;23.70;99.90;;;;;;4901201;29;20198;-68
2022/06/16 11:00:27;;;;;;;0.08;0.08;;;23.60;99.90;;;;;;4895254;29;20047;-68
2022/06/16 11:03:16;;;;;;;0.00;0.00;;;23.80;99.90;;;;;;4894597;29;20504;-67
2022/06/16 11:05:59;;;;;;;0.03;0.03;;;23.80;99.90;;;;;;4894343;29;20048;-68
2022/06/16 11:08:33;;;;;;;0.20;0.20;;;23.90;99.90;;;;;;4895182;29;20131;-68
2022/06/16 11:11:00;;;;;;;0.00;0.00;;;24.00;99.90;;;;;;4895691;29;20577;-68
2022/06/16 11:13:31;;;;;;;0.00;0.00;;;24.30;99.90;;;;;;4893727;29;20477;-67
2022/06/16 11:15:56;;;;;;;0.00;0.00;;;24.50;99.90;;;;;;4914196;29;20044;-68
2022/06/16 11:18:27;;;;;;;0.20;0.20;;;24.60;99.90;;;;;;4912947;29;20087;-67
2022/06/16 11:20:58;;;;;;;0.17;0.17;;;24.70;99.90;;;;;;4897821;29;20049;-68
2022/06/16 11:23:34;;;;;;;0.00;0.00;;;24.90;98.60;;;;;;4894862;29;20791;-67
2022/06/16 11:26:09;;;;;;;0.00;0.00;;;24.90;98.30;;;;;;4895350;29;20056;-68
2022/06/16 11:29:04;;;;;;;0.10;0.10;;;25.00;97.60;;;;;;4907503;29;20512;-67
2022/06/16 11:31:44;;;;;;;0.13;0.10;;;25.30;97.80;;;;;;4907851;29;20056;-68
2022/06/16 11:34:21;;;;;;;0.10;0.10;;;25.10;97.10;;;;;;4910797;29;20063;-68
2022/06/16 11:37:01;;;;;;;0.00;0.00;;;24.90;97.20;;;;;;4911723;29;20484;-68
2022/06/16 11:39:45;;;;;;;0.20;0.20;;;25.00;98.30;;;;;;4894995;29;20074;-68
2022/06/16 11:42:26;;;;;;;0.10;0.10;;;25.10;97.20;;;;;;4898862;29;20052;-68
2022/06/16 11:45:01;;;;;;;0.05;0.05;;;25.30;96.50;;;;;;4913540;29;20044;-68
2022/06/16 11:47:59;;;;;;;0.13;0.13;;;25.30;96.30;;;;;;4915835;29;20059;-68
2022/06/16 11:50:42;;;;;;;0.13;0.10;;;25.40;96.90;;;;;;4914824;29;20067;-68
2022/06/16 11:53:28;;;;;;;0.00;0.00;;;25.30;97.20;;;;;;4897189;29;20056;-68
2022/06/16 11:55:54;;;;;;;0.17;0.17;;;25.40;96.00;;;;;;4899204;29;20060;-68
2022/06/16 11:58:51;;;;;;;0.08;0.08;;;25.30;95.50;;;;;;4916102;29;20040;-68
2022/06/16 12:01:28;;;;;;;0.00;0.00;;;25.60;97.00;;;;;;4916859;29;20192;-68
2022/06/16 12:04:31;;;;;;;0.10;0.10;;;25.20;97.70;;;;;;4918130;29;20040;-68
2022/06/16 12:07:15;;;;;;;0.00;0.00;;;25.50;97.40;;;;;;4900373;29;20045;-68
2022/06/16 12:10:06;;;;;;;0.00;0.00;;;25.90;97.60;;;;;;4898794;29;20060;-68
2022/06/16 12:12:36;;;;;;;0.45;0.45;;;26.00;95.70;;;;;;4907354;29;20062;-68
2022/06/16 12:15:24;;;;;;;0.20;0.10;;;25.90;96.80;;;;;;4916555;29;20096;-68
2022/06/16 12:18:04;;;;;;;0.00;0.00;;;26.10;98.10;;;;;;4916548;29;20134;-68
2022/06/16 12:20:45;;;;;;;0.38;0.10;;;26.40;96.60;;;;;;4910856;29;20060;-68
2022/06/16 12:23:42;;;;;;;0.00;0.00;;;25.80;96.30;;;;;;4913786;29;20477;-67
2022/06/16 12:26:38;;;;;;;0.00;0.00;;;26.00;96.80;;;;;;4917206;29;20048;-68
2022/06/16 12:29:31;;;;;;;0.10;0.10;;;26.20;97.10;;;;;;4906901;29;20072;-68
2022/06/16 12:32:06;;;;;;;0.47;0.32;;;26.30;96.70;;;;;;4910681;29;20155;-68
2022/06/16 12:34:43;;;;;;;0.45;0.45;;;26.30;97.20;;;;;;4910775;29;20063;-68
2022/06/16 12:37:15;;;;;;;0.00;0.00;;;26.50;96.40;;;;;;4912096;29;20067;-68
2022/06/16 12:39:54;;;;;;;0.00;0.00;;;26.60;96.90;;;;;;4907459;29;20485;-68
2022/06/16 12:42:24;;;;;;;5.82;1.67;;;26.70;95.80;;;;;;4895786;29;20144;-68
2022/06/16 12:45:13;;;;;;;0.10;0.10;;;26.70;95.90;;;;;;4904855;29;20087;-68
2022/06/16 12:47:52;;;;;;;0.00;0.00;;;26.70;95.50;;;;;;4916803;29;20047;-68
2022/06/16 12:50:41;;;;;;;0.25;0.25;;;26.40;94.70;;;;;;4916782;29;20094;-68
2022/06/16 12:53:13;;;;;;;0.10;0.10;;;26.60;94.70;;;;;;4911020;29;20048;-68
2022/06/16 12:55:50;;;;;;;0.45;0.45;;;26.60;95.80;;;;;;4916027;29;20107;-68
2022/06/16 12:58:22;;;;;;;0.00;0.00;;;26.70;95.30;;;;;;4915042;29;20048;-68
2022/06/16 13:00:52;;;;;;;0.00;0.00;;;26.70;94.50;;;;;;4911816;29;20075;-68
2022/06/16 13:03:34;;;;;;;0.00;0.00;;;26.90;94.30;;;;;;4915474;29;20531;-68
2022/06/16 13:06:01;;;;;;;0.30;0.20;;;27.10;94.30;;;;;;4916390;29;20135;-68
2022/06/16 13:08:32;;;;;;;0.10;0.10;;;26.70;95.20;;;;;;4912404;29;20066;-68
2022/06/16 13:11:03;;;;;;;1.20;0.47;;;27.00;94.20;;;;;;4908880;29;20052;-68
2022/06/16 13:13:35;;;;;;;1.45;0.20;;;27.00;94.00;;;;;;4897514;29;20104;-68
2022/06/16 13:16:03;;;;;;;0.08;0.08;;;27.10;93.60;;;;;;4916056;29;20139;-68
2022/06/16 13:18:33;;;;;;;0.52;0.30;;;27.20;94.90;;;;;;4914892;29;20142;-68
2022/06/16 13:21:05;;;;;;;0.10;0.10;;;27.00;94.20;;;;;;4900671;29;20108;-68
2022/06/16 13:23:34;;;;;;;0.00;0.00;;;27.00;94.70;;;;;;4895240;29;20144;-68
2022/06/16 13:26:31;;;;;;;0.10;0.10;;;27.00;96.00;;;;;;4896153;29;20131;-68
2022/06/16 13:29:06;;;;;;;0.10;0.10;;;26.90;95.00;;;;;;4910434;29;20048;-68
2022/06/16 13:31:43;;;;;;;0.10;0.10;;;26.80;95.50;;;;;;4914442;29;20052;-68
2022/06/16 13:34:17;;;;;;;0.05;0.05;;;26.50;95.20;;;;;;4914462;29;20063;-68
2022/06/16 13:36:55;;;;;;;0.00;0.00;;;26.60;95.20;;;;;;4915979;29;20468;-68